Terminal Aerodrome Forecast
Issued by NWS

Home | Current Version | Previous Version | Text Only | Print | Product List | Glossary On
Versions: 1 2 3 4 5 6 7 8 9 10 11 12 13
000
FTUS42 TJSJ 302320
TAFIST
TAF
TIST 302320Z 3100/3124 08009KT P6SM SKC
     FM310800 07005KT P6SM VCSH FEW025 SCT035
     FM311450 13014G18KT P6SM SCT030=

USA.gov is the U.S. government's official web portal to all federal, state and local government web resources and services.